Time;durP1;ratioP1;P1;durP2;ratioP2;P2;SDS_P1;SDS_P2;PMS_P1;PMS_P2;Temp;Humidity;BMP_temperature;BMP_pressure;BME280_temperature;BME280_humidity;BME280_pressure;Samples;Min_cycle;Max_cycle;Signal;HPM_P1;HPM_P2
2022/06/23 00:02:28;;;;;;;4.38;1.80;;;;;;;;;;5060903;28;20132;-68
2022/06/23 00:04:58;;;;;;;10.32;2.05;;;;;;;;;;5063828;28;20017;-67
2022/06/23 00:07:24;;;;;;;6.25;2.15;;;;;;;;;;5056939;28;20106;-68
2022/06/23 00:09:51;;;;;;;7.22;1.90;;;;;;;;;;5068268;28;20028;-70
2022/06/23 00:12:19;;;;;;;3.25;1.88;;;;;;;;;;5060346;28;20158;-68
2022/06/23 00:14:45;;;;;;;3.92;1.40;;;;;;;;;;5061874;28;20020;-69
2022/06/23 00:17:21;;;;;;;3.95;1.90;;;;;;;;;;5068732;28;20055;-68
2022/06/23 00:19:46;;;;;;;2.97;1.77;;;;;;;;;;5070414;28;20607;-67
2022/06/23 00:22:12;;;;;;;5.15;1.88;;;;;;;;;;5064285;28;20020;-69
2022/06/23 00:24:39;;;;;;;3.45;1.90;;;;;;;;;;5061737;28;20020;-69
2022/06/23 00:27:04;;;;;;;5.05;1.52;;;;;;;;;;5069987;28;20071;-66
2022/06/23 00:29:29;;;;;;;7.18;1.95;;;;;;;;;;5069400;28;20028;-67
2022/06/23 00:32:01;;;;;;;3.40;1.53;;;;;;;;;;5067722;28;20020;-66
2022/06/23 00:34:29;;;;;;;7.28;2.53;;;;;;;;;;5063067;28;20301;-67
2022/06/23 00:36:55;;;;;;;5.60;1.95;;;;;;;;;;5055671;28;20042;-67
2022/06/23 00:39:34;;;;;;;6.47;1.63;;;;;;;;;;5059945;28;20066;-68
2022/06/23 00:42:01;;;;;;;8.85;1.40;;;;;;;;;;5064076;28;20032;-67
2022/06/23 00:44:38;;;;;;;4.70;1.80;;;;;;;;;;5065432;28;20028;-67
2022/06/23 00:47:05;;;;;;;5.93;2.00;;;;;;;;;;5067031;28;20070;-67
2022/06/23 00:49:45;;;;;;;2.78;1.50;;;;;;;;;;5066300;28;20090;-67
2022/06/23 00:52:18;;;;;;;3.92;1.60;;;;;;;;;;5056609;28;20033;-67
2022/06/23 00:54:46;;;;;;;10.07;2.00;;;;;;;;;;5052899;28;20160;-67
2022/06/23 00:57:20;;;;;;;7.97;2.00;;;;;;;;;;5093728;23;20477;-68
2022/06/23 00:59:56;;;;;;;2.15;1.48;;;;;;;;;;5088446;28;20036;-69
2022/06/23 01:02:24;;;;;;;4.53;2.00;;;;;;;;;;5079365;28;20357;-69
2022/06/23 01:04:58;;;;;;;3.25;1.65;;;;;;;;;;5082661;28;20074;-68
2022/06/23 01:07:29;;;;;;;4.68;1.98;;;;;;;;;;5066157;28;20044;-69
2022/06/23 01:09:58;;;;;;;5.07;1.73;;;;;;;;;;5065172;28;20043;-69
2022/06/23 01:12:29;;;;;;;3.15;1.50;;;;;;;;;;5062913;28;20023;-70
2022/06/23 01:15:01;;;;;;;3.15;1.92;;;;;;;;;;5064711;28;20032;-69
2022/06/23 01:17:33;;;;;;;4.18;2.78;;;;;;;;;;5066188;28;20103;-69
2022/06/23 01:19:58;;;;;;;2.53;1.55;;;;;;;;;;5072734;28;20371;-69
2022/06/23 01:22:46;;;;;;;4.77;1.70;;;;;;;;;;5069818;28;20028;-69
2022/06/23 01:25:29;;;;;;;5.18;1.65;;;;;;;;;;5050666;28;20283;-69
2022/06/23 01:28:03;;;;;;;7.05;2.15;;;;;;;;;;5065409;28;20027;-69
2022/06/23 01:30:36;;;;;;;10.70;1.70;;;;;;;;;;5067366;28;20077;-70
2022/06/23 01:33:02;;;;;;;5.88;1.63;;;;;;;;;;5053975;28;20027;-69
2022/06/23 01:35:47;;;;;;;5.15;1.63;;;;;;;;;;5064747;28;20024;-70
2022/06/23 01:38:32;;;;;;;5.45;1.60;;;;;;;;;;5059745;28;20033;-69
2022/06/23 01:40:59;;;;;;;6.00;1.50;;;;;;;;;;5065625;28;20047;-70
2022/06/23 01:43:42;;;;;;;5.35;1.67;;;;;;;;;;5061976;28;20025;-69
2022/06/23 01:46:21;;;;;;;5.47;1.90;;;;;;;;;;5063778;28;20036;-69
2022/06/23 01:48:53;;;;;;;4.60;1.80;;;;;;;;;;5065488;28;20016;-69
2022/06/23 01:51:26;;;;;;;1.95;1.35;;;;;;;;;;5067473;28;20021;-70
2022/06/23 01:53:53;;;;;;;4.03;1.45;;;;;;;;;;5066869;28;20061;-69
2022/06/23 01:56:50;;;;;;;7.55;2.67;;;;;;;;;;5072057;28;20623;-69
2022/06/23 01:59:21;;;;;;;4.35;1.30;;;;;;;;;;5021533;28;20496;-69
2022/06/23 02:02:05;;;;;;;6.55;1.40;;;;;;;;;;5075683;28;20396;-69
2022/06/23 02:04:34;;;;;;;5.65;1.80;;;;;;;;;;5068622;28;20079;-70
2022/06/23 02:07:07;;;;;;;3.40;1.80;;;;;;;;;;5072347;28;20020;-70
2022/06/23 02:09:40;;;;;;;7.53;1.80;;;;;;;;;;5072344;28;20145;-69
2022/06/23 02:12:13;;;;;;;3.78;2.00;;;;;;;;;;5070242;28;20020;-69
2022/06/23 02:14:46;;;;;;;3.53;1.75;;;;;;;;;;5065418;28;20056;-70
2022/06/23 02:17:30;;;;;;;11.40;2.38;;;;;;;;;;5075798;28;20020;-69
2022/06/23 02:19:58;;;;;;;3.42;1.70;;;;;;;;;;5061130;28;20025;-69
2022/06/23 02:22:31;;;;;;;4.07;1.83;;;;;;;;;;5072217;28;20419;-69
2022/06/23 02:25:04;;;;;;;3.63;1.67;;;;;;;;;;5061268;28;20013;-70
2022/06/23 02:27:34;;;;;;;3.20;1.67;;;;;;;;;;5072469;28;20088;-70
2022/06/23 02:30:04;;;;;;;7.07;1.95;;;;;;;;;;5070049;28;20034;-69
2022/06/23 02:32:40;;;;;;;4.80;1.95;;;;;;;;;;5074157;28;20499;-69
2022/06/23 02:35:12;;;;;;;4.40;2.08;;;;;;;;;;5072283;28;20082;-69
2022/06/23 02:37:52;;;;;;;6.35;1.92;;;;;;;;;;5069574;28;20017;-69
2022/06/23 02:40:24;;;;;;;6.50;2.40;;;;;;;;;;5067813;28;20104;-69
2022/06/23 02:42:52;;;;;;;3.60;1.75;;;;;;;;;;5070781;28;20021;-69
2022/06/23 02:45:40;;;;;;;2.33;1.85;;;;;;;;;;5073841;28;20021;-71
2022/06/23 02:48:25;;;;;;;4.60;2.28;;;;;;;;;;5071020;28;20023;-69
2022/06/23 02:51:05;;;;;;;3.60;2.10;;;;;;;;;;5073780;28;20488;-69
2022/06/23 02:53:48;;;;;;;3.25;1.75;;;;;;;;;;5071977;28;20395;-70
2022/06/23 02:56:16;;;;;;;3.88;2.15;;;;;;;;;;5066290;28;20028;-69
2022/06/23 02:58:48;;;;;;;5.05;2.45;;;;;;;;;;5064500;28;20086;-69
2022/06/23 03:01:18;;;;;;;4.15;2.10;;;;;;;;;;5071423;28;20063;-70
2022/06/23 03:03:51;;;;;;;3.65;1.90;;;;;;;;;;5067329;28;20461;-69
2022/06/23 03:06:25;;;;;;;6.00;2.05;;;;;;;;;;5068209;28;20032;-70
2022/06/23 03:08:58;;;;;;;6.80;2.42;;;;;;;;;;5068954;28;20028;-69
2022/06/23 03:11:52;;;;;;;5.30;2.00;;;;;;;;;;5063194;28;20023;-69
2022/06/23 03:14:32;;;;;;;6.50;2.22;;;;;;;;;;5073913;28;20111;-69
2022/06/23 03:17:03;;;;;;;5.80;1.80;;;;;;;;;;5067491;28;20054;-70
2022/06/23 03:19:31;;;;;;;4.75;1.95;;;;;;;;;;5065813;28;20021;-69
2022/06/23 03:22:10;;;;;;;4.68;2.25;;;;;;;;;;5065301;28;20016;-69
2022/06/23 03:24:44;;;;;;;6.60;2.07;;;;;;;;;;5065534;28;20024;-69
2022/06/23 03:27:28;;;;;;;4.45;2.05;;;;;;;;;;5064643;28;20009;-69
2022/06/23 03:30:13;;;;;;;4.88;2.22;;;;;;;;;;5054305;28;20477;-69
2022/06/23 03:32:45;;;;;;;4.07;1.90;;;;;;;;;;5061087;28;20464;-69
2022/06/23 03:35:21;;;;;;;6.82;1.90;;;;;;;;;;5064449;28;20052;-69
2022/06/23 03:37:51;;;;;;;9.02;1.95;;;;;;;;;;5061612;28;20027;-69
2022/06/23 03:43:31;;;;;;;4.32;1.88;;;;;;;;;;5073876;28;20253;-69
2022/06/23 03:46:11;;;;;;;7.40;2.20;;;;;;;;;;5058238;28;20017;-69
2022/06/23 03:48:39;;;;;;;6.43;2.47;;;;;;;;;;5062427;28;20021;-69
2022/06/23 03:51:33;;;;;;;3.95;2.28;;;;;;;;;;5064400;28;20424;-69
2022/06/23 03:54:16;;;;;;;6.47;2.08;;;;;;;;;;5050382;28;20431;-69
2022/06/23 03:56:44;;;;;;;5.80;2.65;;;;;;;;;;5068593;28;20020;-69
2022/06/23 03:59:25;;;;;;;4.28;2.33;;;;;;;;;;5071607;28;20028;-68
2022/06/23 04:01:53;;;;;;;2.88;2.03;;;;;;;;;;5068515;28;20056;-69
2022/06/23 04:04:20;;;;;;;9.00;2.50;;;;;;;;;;5069834;28;20420;-69
2022/06/23 04:06:47;;;;;;;5.07;2.50;;;;;;;;;;5063767;28;20016;-69
2022/06/23 04:09:17;;;;;;;3.47;2.35;;;;;;;;;;5067546;28;20149;-68
2022/06/23 04:11:48;;;;;;;7.65;2.63;;;;;;;;;;5065392;28;20047;-68
2022/06/23 04:14:20;;;;;;;5.03;2.40;;;;;;;;;;5064595;28;20400;-69
2022/06/23 04:16:47;;;;;;;10.30;2.50;;;;;;;;;;5067234;28;20020;-70
2022/06/23 04:19:24;;;;;;;4.68;2.17;;;;;;;;;;5066969;28;20078;-69
2022/06/23 04:21:57;;;;;;;4.40;2.17;;;;;;;;;;5066449;28;20104;-69
2022/06/23 04:24:24;;;;;;;6.65;2.45;;;;;;;;;;5058810;28;20020;-69
2022/06/23 04:26:52;;;;;;;4.30;2.05;;;;;;;;;;5063148;28;20031;-70
2022/06/23 04:29:20;;;;;;;2.83;1.98;;;;;;;;;;5063222;28;20017;-70
2022/06/23 04:31:48;;;;;;;4.38;2.25;;;;;;;;;;5053270;28;20059;-69
2022/06/23 04:34:22;;;;;;;4.43;2.25;;;;;;;;;;5066407;28;20384;-69
2022/06/23 04:36:47;;;;;;;6.70;2.42;;;;;;;;;;5069007;28;20020;-69
2022/06/23 04:39:20;;;;;;;4.65;2.30;;;;;;;;;;5063224;28;20020;-69
2022/06/23 04:41:48;;;;;;;4.07;1.98;;;;;;;;;;5068428;28;20028;-69
2022/06/23 04:44:31;;;;;;;8.68;2.10;;;;;;;;;;5068306;28;20035;-69
2022/06/23 04:47:07;;;;;;;5.53;3.42;;;;;;;;;;5063084;28;20021;-70
2022/06/23 04:49:38;;;;;;;4.93;2.78;;;;;;;;;;5055058;28;20411;-69
2022/06/23 04:52:12;;;;;;;5.68;2.10;;;;;;;;;;5059510;28;20537;-69
2022/06/23 04:55:06;;;;;;;3.95;2.28;;;;;;;;;;5067816;28;20048;-69
2022/06/23 04:57:37;;;;;;;5.72;2.20;;;;;;;;;;5047597;28;20134;-69
2022/06/23 05:00:03;;;;;;;5.45;2.70;;;;;;;;;;5063532;28;20020;-69
2022/06/23 05:02:33;;;;;;;4.78;2.47;;;;;;;;;;5061868;28;20025;-69
2022/06/23 05:05:04;;;;;;;3.25;2.00;;;;;;;;;;5060212;28;20004;-69
2022/06/23 05:07:34;;;;;;;4.55;2.10;;;;;;;;;;5059559;28;20021;-70
2022/06/23 05:10:01;;;;;;;9.23;2.40;;;;;;;;;;5058865;28;20019;-69
2022/06/23 05:12:40;;;;;;;6.07;2.05;;;;;;;;;;5065318;28;20472;-69
2022/06/23 05:15:15;;;;;;;7.65;2.08;;;;;;;;;;5055032;28;20078;-70
2022/06/23 05:17:45;;;;;;;6.75;2.50;;;;;;;;;;5059019;28;20025;-69
2022/06/23 05:20:17;;;;;;;4.20;1.92;;;;;;;;;;5062980;28;20032;-69
2022/06/23 05:22:45;;;;;;;8.07;2.53;;;;;;;;;;5068277;28;20726;-69
2022/06/23 05:25:27;;;;;;;6.75;2.33;;;;;;;;;;5059705;28;20020;-69
2022/06/23 05:27:52;;;;;;;13.55;2.40;;;;;;;;;;5062350;28;20079;-70
2022/06/23 05:30:25;;;;;;;4.35;2.00;;;;;;;;;;5062210;28;20457;-71
2022/06/23 05:32:53;;;;;;;6.53;2.42;;;;;;;;;;5061099;28;20580;-70
2022/06/23 05:35:21;;;;;;;5.15;2.20;;;;;;;;;;5062058;28;20025;-69
2022/06/23 05:38:14;;;;;;;6.60;2.55;;;;;;;;;;5063561;28;20188;-70
2022/06/23 05:40:47;;;;;;;4.80;2.00;;;;;;;;;;5045523;28;20151;-70
2022/06/23 05:43:13;;;;;;;5.13;2.33;;;;;;;;;;5052720;28;20040;-70
2022/06/23 05:45:42;;;;;;;4.18;2.42;;;;;;;;;;5061125;28;20085;-71
2022/06/23 05:48:11;;;;;;;5.00;2.20;;;;;;;;;;5061700;28;20016;-69
2022/06/23 05:50:50;;;;;;;5.72;1.92;;;;;;;;;;5042185;28;20028;-70
2022/06/23 05:53:36;;;;;;;6.15;2.25;;;;;;;;;;5059574;28;20484;-69
2022/06/23 05:56:01;;;;;;;6.97;2.13;;;;;;;;;;5059206;28;20051;-69
2022/06/23 05:58:33;;;;;;;5.35;1.75;;;;;;;;;;5061609;28;20498;-70
2022/06/23 06:01:11;;;;;;;7.07;1.70;;;;;;;;;;5063818;28;20025;-70
2022/06/23 06:03:42;;;;;;;3.78;2.42;;;;;;;;;;5062467;28;20044;-69
2022/06/23 06:06:07;;;;;;;8.73;2.15;;;;;;;;;;5062270;28;20020;-70
2022/06/23 06:11:31;;;;;;;11.73;1.73;;;;;;;;;;5054891;28;20376;-70
2022/06/23 06:13:57;;;;;;;7.45;2.53;;;;;;;;;;5066722;28;20031;-70
2022/06/23 06:16:22;;;;;;;8.60;2.65;;;;;;;;;;5064007;28;20432;-70
2022/06/23 06:18:48;;;;;;;8.33;2.90;;;;;;;;;;5061361;28;20213;-69
2022/06/23 06:21:16;;;;;;;7.65;2.40;;;;;;;;;;5064010;28;20286;-71
2022/06/23 06:23:44;;;;;;;7.35;2.22;;;;;;;;;;5060807;28;20021;-69
2022/06/23 06:26:12;;;;;;;4.57;2.40;;;;;;;;;;5054915;28;20400;-70
2022/06/23 06:28:37;;;;;;;4.75;1.88;;;;;;;;;;5047995;28;20017;-68
2022/06/23 06:31:07;;;;;;;8.13;2.83;;;;;;;;;;5063645;28;20103;-70
2022/06/23 06:33:35;;;;;;;5.07;2.00;;;;;;;;;;5057946;28;20025;-69
2022/06/23 06:36:00;;;;;;;6.75;1.90;;;;;;;;;;5063677;28;20073;-69
2022/06/23 06:38:27;;;;;;;5.70;2.43;;;;;;;;;;5065512;28;20029;-69
2022/06/23 06:40:56;;;;;;;5.47;2.22;;;;;;;;;;5069297;28;20388;-70
2022/06/23 06:43:23;;;;;;;6.60;2.63;;;;;;;;;;5067713;28;20017;-69
2022/06/23 06:45:48;;;;;;;11.68;4.13;;;;;;;;;;5071478;28;20031;-69
2022/06/23 06:48:23;;;;;;;6.23;2.33;;;;;;;;;;5073704;28;20020;-69
2022/06/23 06:50:52;;;;;;;8.77;2.40;;;;;;;;;;5060617;28;20143;-69
2022/06/23 06:53:20;;;;;;;2.58;1.88;;;;;;;;;;5056434;28;20028;-69
2022/06/23 06:55:48;;;;;;;4.38;2.08;;;;;;;;;;5062350;28;20031;-71
2022/06/23 06:58:18;;;;;;;5.80;2.88;;;;;;;;;;5093334;22;20051;-66
2022/06/23 07:00:49;;;;;;;6.72;2.25;;;;;;;;;;5085797;28;20035;-66
2022/06/23 07:03:15;;;;;;;10.07;2.50;;;;;;;;;;5087039;28;20023;-66
2022/06/23 07:05:47;;;;;;;7.05;2.03;;;;;;;;;;5088296;28;20063;-66
2022/06/23 07:08:30;;;;;;;6.43;2.70;;;;;;;;;;5060527;28;20023;-66
2022/06/23 07:10:59;;;;;;;4.75;2.58;;;;;;;;;;5060183;28;20388;-66
2022/06/23 07:13:26;;;;;;;8.63;2.83;;;;;;;;;;5059220;28;20381;-66
2022/06/23 07:15:57;;;;;;;3.65;1.67;;;;;;;;;;5061867;28;20492;-65
2022/06/23 07:18:30;;;;;;;15.98;2.50;;;;;;;;;;5067968;28;20388;-68
2022/06/23 07:20:55;;;;;;;8.73;3.20;;;;;;;;;;5061591;28;20480;-69
2022/06/23 07:23:23;;;;;;;12.13;2.72;;;;;;;;;;5052405;28;20057;-68
2022/06/23 07:25:53;;;;;;;6.93;2.53;;;;;;;;;;5052315;28;20017;-68
2022/06/23 07:28:18;;;;;;;;;;;;;;;;;;5053492;28;20017;-68
2022/06/23 07:30:49;;;;;;;7.45;3.08;;;;;;;;;;5063876;28;19915;-68
2022/06/23 07:33:29;;;;;;;2.58;1.67;;;;;;;;;;5064819;28;20121;-67
2022/06/23 07:36:01;;;;;;;4.93;2.22;;;;;;;;;;5059621;28;20434;-68
2022/06/23 07:38:28;;;;;;;9.10;3.55;;;;;;;;;;5062980;28;20040;-68
2022/06/23 07:41:16;;;;;;;8.63;3.30;;;;;;;;;;5060809;28;20034;-68
2022/06/23 07:43:42;;;;;;;6.18;3.33;;;;;;;;;;5066853;28;20013;-68
2022/06/23 07:46:08;;;;;;;9.27;2.78;;;;;;;;;;5061356;28;20017;-67
2022/06/23 07:48:34;;;;;;;10.32;2.60;;;;;;;;;;5071945;28;20024;-68
2022/06/23 07:51:01;;;;;;;7.97;2.72;;;;;;;;;;5038784;28;20017;-68
2022/06/23 07:53:31;;;;;;;9.85;3.20;;;;;;;;;;5050722;28;20393;-68
2022/06/23 07:55:56;;;;;;;14.43;3.60;;;;;;;;;;5059998;28;20028;-69
2022/06/23 07:58:23;;;;;;;17.35;4.45;;;;;;;;;;5051914;28;20025;-68
2022/06/23 08:00:51;;;;;;;16.30;3.45;;;;;;;;;;5061694;28;20024;-68
2022/06/23 08:03:21;;;;;;;6.72;1.80;;;;;;;;;;5067699;28;20021;-68
2022/06/23 08:05:50;;;;;;;6.72;2.78;;;;;;;;;;5069903;28;20012;-68
2022/06/23 08:08:19;;;;;;;4.68;2.38;;;;;;;;;;5063253;28;20021;-68
2022/06/23 08:10:44;;;;;;;8.55;3.15;;;;;;;;;;5055577;28;20024;-68
2022/06/23 08:13:19;;;;;;;5.13;2.97;;;;;;;;;;5061500;28;20020;-68
2022/06/23 08:18:36;;;;;;;4.78;3.03;;;;;;;;;;5058666;28;20027;-68
2022/06/23 08:21:16;;;;;;;2.67;1.95;;;;;;;;;;5051486;28;20017;-68
2022/06/23 08:23:45;;;;;;;5.45;2.95;;;;;;;;;;5051917;28;20020;-68
2022/06/23 08:26:11;;;;;;;7.18;3.47;;;;;;;;;;5068669;28;20033;-68
2022/06/23 08:28:37;;;;;;;6.47;3.28;;;;;;;;;;5069047;28;20020;-68
2022/06/23 08:31:03;;;;;;;5.13;3.25;;;;;;;;;;5063982;28;20385;-68
2022/06/23 08:33:29;;;;;;;7.53;3.60;;;;;;;;;;5064120;28;20032;-68
2022/06/23 08:35:55;;;;;;;11.93;3.33;;;;;;;;;;5063873;28;20070;-68
2022/06/23 08:38:31;;;;;;;9.10;2.95;;;;;;;;;;5061164;28;20017;-68
2022/06/23 08:40:56;;;;;;;5.75;3.22;;;;;;;;;;5066382;28;20020;-68
2022/06/23 08:43:26;;;;;;;8.07;2.80;;;;;;;;;;5061424;28;20068;-68
2022/06/23 08:45:51;;;;;;;;;;;;;;;;;;5056384;28;20251;-68
2022/06/23 08:48:30;;;;;;;12.50;3.88;;;;;;;;;;5051151;28;19905;-68
2022/06/23 08:50:58;;;;;;;4.63;2.58;;;;;;;;;;5051326;28;20021;-68
2022/06/23 08:53:39;;;;;;;8.40;2.92;;;;;;;;;;5050742;28;20043;-69
2022/06/23 08:56:09;;;;;;;4.82;2.67;;;;;;;;;;5069832;28;20456;-69
2022/06/23 08:58:54;;;;;;;8.98;3.78;;;;;;;;;;5060294;28;20496;-69
2022/06/23 09:01:19;;;;;;;3.88;2.75;;;;;;;;;;5061466;28;20119;-69
2022/06/23 09:03:56;;;;;;;7.35;3.28;;;;;;;;;;5066998;28;20097;-68
2022/06/23 09:06:22;;;;;;;8.00;4.00;;;;;;;;;;5070821;28;20615;-68
2022/06/23 09:08:53;;;;;;;4.50;2.43;;;;;;;;;;5064226;28;20008;-68
2022/06/23 09:11:30;;;;;;;8.02;3.20;;;;;;;;;;5067655;28;20355;-68
2022/06/23 09:14:08;;;;;;;10.98;3.45;;;;;;;;;;5057914;28;20051;-67
2022/06/23 09:16:41;;;;;;;5.50;2.70;;;;;;;;;;5055481;28;20032;-68
2022/06/23 09:19:18;;;;;;;7.18;3.80;;;;;;;;;;5060673;28;20091;-68
2022/06/23 09:21:52;;;;;;;6.78;3.03;;;;;;;;;;5060650;28;20013;-68
2022/06/23 09:24:28;;;;;;;8.10;3.13;;;;;;;;;;5066420;28;20020;-68
2022/06/23 09:27:23;;;;;;;8.93;3.70;;;;;;;;;;5053296;28;20025;-68
2022/06/23 09:29:56;;;;;;;5.50;2.92;;;;;;;;;;5043054;28;20029;-68
2022/06/23 09:32:21;;;;;;;5.50;3.25;;;;;;;;;;5059866;28;20021;-68
2022/06/23 09:35:01;;;;;;;6.10;3.30;;;;;;;;;;5063166;28;20016;-68
2022/06/23 09:37:26;;;;;;;;;;;;;;;;;;5056284;28;20053;-68
2022/06/23 09:40:09;;;;;;;11.70;2.88;;;;;;;;;;5062153;28;20028;-68
2022/06/23 09:42:34;;;;;;;19.15;2.75;;;;;;;;;;5060934;28;20017;-68
2022/06/23 09:45:18;;;;;;;3.83;2.43;;;;;;;;;;5060603;28;20020;-68
2022/06/23 09:48:01;;;;;;;6.18;2.60;;;;;;;;;;5062715;28;20480;-68
2022/06/23 09:50:38;;;;;;;8.52;2.40;;;;;;;;;;5061275;28;20021;-68
2022/06/23 09:53:15;;;;;;;10.93;3.80;;;;;;;;;;5056809;28;20025;-69
2022/06/23 09:55:56;;;;;;;7.35;3.47;;;;;;;;;;5058088;28;20020;-69
2022/06/23 09:58:31;;;;;;;11.88;3.58;;;;;;;;;;5055364;28;20055;-69
2022/06/23 10:01:04;;;;;;;8.20;3.50;;;;;;;;;;5058087;28;20568;-69
2022/06/23 10:03:49;;;;;;;9.57;3.20;;;;;;;;;;5042830;28;20012;-69
2022/06/23 10:06:20;;;;;;;12.93;3.40;;;;;;;;;;5047261;28;20107;-69
2022/06/23 10:08:51;;;;;;;5.32;3.50;;;;;;;;;;5058562;28;20074;-69
2022/06/23 10:11:26;;;;;;;3.03;1.95;;;;;;;;;;5058811;28;20103;-69
2022/06/23 10:13:54;;;;;;;8.93;3.65;;;;;;;;;;5058709;28;20108;-69
2022/06/23 10:16:21;;;;;;;4.60;3.00;;;;;;;;;;5065581;28;20028;-69
2022/06/23 10:19:06;;;;;;;5.50;2.70;;;;;;;;;;5062314;28;20020;-69
2022/06/23 10:21:31;;;;;;;8.98;3.50;;;;;;;;;;5070151;28;20024;-69
2022/06/23 10:23:59;;;;;;;4.60;3.00;;;;;;;;;;5058383;28;20079;-69
2022/06/23 10:26:43;;;;;;;9.52;3.00;;;;;;;;;;5059272;28;20491;-69
2022/06/23 10:29:17;;;;;;;3.83;2.28;;;;;;;;;;5061562;28;20021;-69
2022/06/23 10:31:48;;;;;;;10.40;3.72;;;;;;;;;;5065090;28;20048;-69
2022/06/23 10:34:19;;;;;;;6.30;3.13;;;;;;;;;;5066724;28;20043;-69
2022/06/23 10:36:44;;;;;;;3.25;2.42;;;;;;;;;;5068099;28;20077;-69
2022/06/23 10:39:25;;;;;;;9.10;3.63;;;;;;;;;;5060304;28;20029;-69
2022/06/23 10:42:01;;;;;;;11.73;2.95;;;;;;;;;;5060679;28;20020;-69
2022/06/23 10:44:39;;;;;;;3.60;2.45;;;;;;;;;;5057911;28;20108;-69
2022/06/23 10:47:10;;;;;;;5.85;2.92;;;;;;;;;;5060922;28;20567;-69
2022/06/23 10:49:38;;;;;;;10.45;3.25;;;;;;;;;;5062848;28;20428;-69
2022/06/23 10:52:06;;;;;;;8.82;2.90;;;;;;;;;;5060204;28;20539;-69
2022/06/23 10:54:37;;;;;;;5.40;2.55;;;;;;;;;;5064090;28;20154;-69
2022/06/23 10:57:14;;;;;;;5.50;3.20;;;;;;;;;;5056773;28;20013;-69
2022/06/23 10:59:54;;;;;;;6.50;3.05;;;;;;;;;;5060589;28;20029;-69
2022/06/23 11:02:25;;;;;;;7.40;2.83;;;;;;;;;;5063109;28;20020;-69
2022/06/23 11:04:59;;;;;;;7.20;3.60;;;;;;;;;;5069073;28;20100;-69
2022/06/23 11:07:36;;;;;;;5.28;2.22;;;;;;;;;;5063871;28;20013;-69
2022/06/23 11:10:15;;;;;;;4.85;2.80;;;;;;;;;;5059228;28;20012;-69
2022/06/23 11:12:43;;;;;;;10.70;3.22;;;;;;;;;;5059723;28;20021;-69
2022/06/23 11:15:18;;;;;;;5.93;2.75;;;;;;;;;;5064002;28;20021;-69
2022/06/23 11:17:49;;;;;;;11.10;3.30;;;;;;;;;;5059324;28;20012;-69
2022/06/23 11:20:35;;;;;;;10.23;2.53;;;;;;;;;;5060939;28;20052;-69
2022/06/23 11:23:09;;;;;;;10.85;3.40;;;;;;;;;;5063549;28;20470;-69
2022/06/23 11:25:37;;;;;;;3.35;2.45;;;;;;;;;;5052558;28;20020;-70
2022/06/23 11:28:06;;;;;;;7.97;3.17;;;;;;;;;;5061474;28;20475;-67
2022/06/23 11:30:31;;;;;;;;;;;;;;;;;;5059881;28;20553;-68
2022/06/23 11:33:03;;;;;;;5.10;2.70;;;;;;;;;;5068561;28;20339;-68
2022/06/23 11:35:40;;;;;;;9.07;3.17;;;;;;;;;;5062595;28;20020;-68
2022/06/23 11:38:11;;;;;;;7.88;2.97;;;;;;;;;;5060506;28;20547;-68
2022/06/23 11:40:45;;;;;;;5.03;2.72;;;;;;;;;;5059073;28;20033;-68
2022/06/23 11:43:13;;;;;;;4.43;2.22;;;;;;;;;;5058553;28;20107;-68
2022/06/23 11:45:41;;;;;;;13.75;2.13;;;;;;;;;;5059824;28;20028;-68
2022/06/23 11:48:15;;;;;;;6.55;3.45;;;;;;;;;;5056717;28;20019;-68
2022/06/23 11:50:45;;;;;;;5.38;2.70;;;;;;;;;;5062187;28;20013;-68
2022/06/23 11:53:16;;;;;;;14.43;2.50;;;;;;;;;;5060974;28;20027;-68
2022/06/23 11:55:44;;;;;;;6.25;2.03;;;;;;;;;;5056931;28;20013;-68
2022/06/23 11:58:11;;;;;;;10.63;3.33;;;;;;;;;;5065871;28;20020;-68
2022/06/23 12:01:14;;;;;;;4.00;1.98;;;;;;;;;;5056647;28;20017;-68
2022/06/23 12:03:39;;;;;;;3.10;2.53;;;;;;;;;;5001595;28;20113;-68
2022/06/23 12:06:30;;;;;;;5.03;1.92;;;;;;;;;;5049593;28;20440;-68
2022/06/23 12:08:59;;;;;;;4.18;2.60;;;;;;;;;;5061808;28;20478;-69
2022/06/23 12:11:24;;;;;;;4.25;2.50;;;;;;;;;;5059713;28;20039;-68
2022/06/23 12:13:50;;;;;;;4.32;2.45;;;;;;;;;;5052905;28;20025;-68
2022/06/23 12:16:16;;;;;;;2.47;1.47;;;;;;;;;;5056730;28;20047;-68
2022/06/23 12:18:47;;;;;;;7.45;2.90;;;;;;;;;;5061634;28;20350;-68
2022/06/23 12:21:21;;;;;;;3.78;1.52;;;;;;;;;;5062115;28;20029;-67
2022/06/23 12:23:59;;;;;;;11.20;1.67;;;;;;;;;;5060686;28;20141;-67
2022/06/23 12:26:30;;;;;;;4.45;2.60;;;;;;;;;;5058992;28;20146;-67
2022/06/23 12:29:10;;;;;;;5.78;2.95;;;;;;;;;;5064941;28;20013;-69
2022/06/23 12:32:01;;;;;;;4.75;2.72;;;;;;;;;;5059697;28;20031;-67
2022/06/23 12:34:35;;;;;;;4.55;2.40;;;;;;;;;;5037089;28;20087;-67
2022/06/23 12:37:17;;;;;;;4.22;2.50;;;;;;;;;;5060991;28;20116;-68
2022/06/23 12:39:46;;;;;;;9.32;2.33;;;;;;;;;;5067238;28;20386;-68
2022/06/23 12:42:17;;;;;;;9.38;2.83;;;;;;;;;;5063411;28;20024;-68
2022/06/23 12:44:56;;;;;;;5.30;2.70;;;;;;;;;;5054999;28;20369;-67
2022/06/23 12:47:27;;;;;;;5.95;1.73;;;;;;;;;;5061758;28;20021;-69
2022/06/23 12:49:58;;;;;;;6.88;2.97;;;;;;;;;;5059805;28;20021;-67
2022/06/23 12:52:29;;;;;;;6.53;2.60;;;;;;;;;;5058376;28;20126;-68
2022/06/23 12:55:13;;;;;;;8.32;2.47;;;;;;;;;;5054743;28;20059;-68
2022/06/23 12:57:52;;;;;;;6.07;2.47;;;;;;;;;;5084206;23;20048;-70
2022/06/23 13:00:21;;;;;;;6.38;3.70;;;;;;;;;;5085417;28;20027;-70
2022/06/23 13:02:50;;;;;;;3.10;1.98;;;;;;;;;;5082428;28;20038;-70
2022/06/23 13:05:19;;;;;;;2.90;2.10;;;;;;;;;;5084354;28;20333;-72
2022/06/23 13:07:50;;;;;;;9.15;2.92;;;;;;;;;;5085385;28;20020;-71
2022/06/23 13:10:24;;;;;;;8.77;3.17;;;;;;;;;;5068121;28;20032;-71
2022/06/23 13:13:07;;;;;;;8.00;2.70;;;;;;;;;;5066747;28;20082;-71
2022/06/23 13:15:39;;;;;;;9.38;2.85;;;;;;;;;;5065716;28;20028;-71
2022/06/23 13:18:13;;;;;;;7.13;2.80;;;;;;;;;;5067726;28;20024;-70
2022/06/23 13:20:47;;;;;;;5.38;2.80;;;;;;;;;;5070560;28;20023;-70
2022/06/23 13:23:12;;;;;;;3.15;1.92;;;;;;;;;;5067225;28;20056;-70
2022/06/23 13:25:48;;;;;;;10.87;2.60;;;;;;;;;;5068144;28;20044;-70
2022/06/23 13:28:27;;;;;;;4.68;2.65;;;;;;;;;;5070457;28;20784;-71
2022/06/23 13:30:55;;;;;;;5.93;2.58;;;;;;;;;;5065712;28;20017;-70
2022/06/23 13:33:28;;;;;;;7.20;3.50;;;;;;;;;;5065832;28;20032;-70
2022/06/23 13:35:58;;;;;;;4.65;2.90;;;;;;;;;;5069484;28;20121;-70
2022/06/23 13:38:37;;;;;;;7.07;3.33;;;;;;;;;;5065192;28;20419;-70
2022/06/23 13:41:09;;;;;;;6.72;3.53;;;;;;;;;;5067672;28;20036;-70
2022/06/23 13:43:41;;;;;;;8.05;2.72;;;;;;;;;;5070000;28;20345;-70
2022/06/23 13:46:12;;;;;;;6.07;3.03;;;;;;;;;;5069778;28;20008;-71
2022/06/23 13:48:46;;;;;;;8.25;3.47;;;;;;;;;;5065231;28;20012;-70
2022/06/23 13:51:15;;;;;;;10.25;2.92;;;;;;;;;;5065105;28;20020;-71
2022/06/23 13:53:43;;;;;;;8.43;3.65;;;;;;;;;;5050331;28;20035;-70
2022/06/23 13:56:27;;;;;;;6.15;3.30;;;;;;;;;;5069267;28;20078;-70
2022/06/23 13:59:02;;;;;;;9.98;4.22;;;;;;;;;;5064302;28;20032;-70
2022/06/23 14:01:30;;;;;;;8.05;2.92;;;;;;;;;;5069422;28;20117;-70
2022/06/23 14:03:55;;;;;;;11.57;4.53;;;;;;;;;;5048442;28;20551;-70
2022/06/23 14:06:23;;;;;;;9.68;3.00;;;;;;;;;;5065977;28;20104;-70
2022/06/23 14:08:55;;;;;;;5.20;2.88;;;;;;;;;;5065935;28;20024;-70
2022/06/23 14:11:38;;;;;;;6.55;3.28;;;;;;;;;;5069694;28;20017;-70
2022/06/23 14:14:06;;;;;;;6.68;3.95;;;;;;;;;;5069256;28;20031;-69
2022/06/23 14:16:41;;;;;;;12.32;4.07;;;;;;;;;;5069470;28;20021;-70
2022/06/23 14:19:19;;;;;;;7.10;3.90;;;;;;;;;;5068594;28;20024;-70
2022/06/23 14:21:51;;;;;;;10.07;3.83;;;;;;;;;;5074505;28;20031;-71
2022/06/23 14:24:18;;;;;;;11.93;4.10;;;;;;;;;;5069579;28;20033;-70
2022/06/23 14:26:48;;;;;;;6.68;4.20;;;;;;;;;;5069633;28;20040;-70
2022/06/23 14:29:19;;;;;;;6.13;3.35;;;;;;;;;;5068824;28;20465;-71
2022/06/23 14:31:48;;;;;;;12.65;4.25;;;;;;;;;;5070924;28;20028;-70
2022/06/23 14:34:34;;;;;;;11.98;4.45;;;;;;;;;;5066578;28;20025;-71
2022/06/23 14:37:02;;;;;;;7.20;4.10;;;;;;;;;;5064874;28;20044;-70
2022/06/23 14:39:44;;;;;;;8.25;3.67;;;;;;;;;;5063475;28;20021;-70
2022/06/23 14:42:16;;;;;;;16.67;4.30;;;;;;;;;;5049044;28;20021;-71
2022/06/23 14:45:00;;;;;;;12.27;4.50;;;;;;;;;;5059508;28;20039;-70
2022/06/23 14:47:35;;;;;;;8.10;3.08;;;;;;;;;;5065295;28;20025;-71
2022/06/23 14:50:06;;;;;;;8.27;4.40;;;;;;;;;;5065778;28;20017;-70
2022/06/23 14:53:04;;;;;;;10.05;4.35;;;;;;;;;;5044290;28;20021;-70
2022/06/23 14:55:45;;;;;;;12.23;4.18;;;;;;;;;;5024084;28;20512;-71
2022/06/23 14:58:18;;;;;;;10.07;2.55;;;;;;;;;;5068409;28;20044;-70
2022/06/23 15:00:59;;;;;;;7.75;3.70;;;;;;;;;;5069336;28;20020;-71
2022/06/23 15:03:25;;;;;;;9.85;4.18;;;;;;;;;;5064011;28;20021;-70
2022/06/23 15:06:14;;;;;;;10.10;4.20;;;;;;;;;;5071401;28;20107;-70
2022/06/23 15:08:49;;;;;;;9.95;3.67;;;;;;;;;;5065706;28;20432;-69
2022/06/23 15:11:36;;;;;;;19.20;4.18;;;;;;;;;;5072149;28;20082;-69
2022/06/23 15:14:08;;;;;;;3.67;2.00;;;;;;;;;;5067710;28;20025;-70
2022/06/23 15:16:38;;;;;;;9.60;4.13;;;;;;;;;;5070871;28;20044;-70
2022/06/23 15:19:06;;;;;;;4.35;2.47;;;;;;;;;;5071631;28;20100;-70
2022/06/23 15:24:20;;;;;;;13.40;3.38;;;;;;;;;;5069581;28;20545;-71
2022/06/23 15:26:50;;;;;;;9.52;3.50;;;;;;;;;;5072497;28;20042;-69
2022/06/23 15:29:25;;;;;;;11.40;3.58;;;;;;;;;;5067375;28;20141;-71